PWSweather.com
Personal Weather Stations
Station Observations
BLACKWELL
Blackwell, AlfretonGB DE55

BlackwellAlfretonGB DE55

Lat: 53.12076, Lon: -1.354978

Elevation: 410

Station Type: Vantage Pro

High Low Average
Temperature 50.2°F10.1°C 45.0°F7.2°C 47.7°F8.7°C
Dew Point 46.9°F8.3°C 41.7°F5.4°C 43.7°F6.5°C
Winds 4.0 mph 6.4 kmh 1.0 mph 1.6 kmh 3.0 mph WSW4.8 kmh WSW
Wind Gusts 11.0 mph17.7 kmh 4.0 mph6.4 kmh 8.0 mph12.9 kmh
Humidity 92% 80% 86%
Pressure 30.39 in1029.1 mb 29.84 in1010.5 mb -
Precipitation 0.01 in0.3 mm - -
Hour Temp Dew Point Humidity Winds Wind Gusts Pressure Precip Precip Rate Daily Precip Total
12:24 AM 45.0°F7.2°C 42.6°F5.9°C 91% 3.0 mph WSW4.8 kmh WSW 6.0 mph9.7 kmh 30.39 in1029.1 mb 0.00 in0.0 mm 0.00 in0.0 mm 0.00 in0.0 mm
01:24 AM 45.1°F7.3°C 42.3°F5.7°C 90% 3.0 mph SW4.8 kmh SW 6.0 mph9.7 kmh 30.37 in1028.4 mb 0.00 in0.0 mm 0.00 in0.0 mm 0.00 in0.0 mm
02:24 AM 45.3°F7.4°C 41.7°F5.4°C 87% 2.0 mph SW3.2 kmh SW 7.0 mph11.3 kmh 30.36 in1028.1 mb 0.00 in0.0 mm 0.00 in0.0 mm 0.00 in0.0 mm
03:24 AM 46.0°F7.8°C 42.1°F5.6°C 86% 3.0 mph SW4.8 kmh SW 8.0 mph12.9 kmh 30.34 in1027.4 mb 0.00 in0.0 mm 0.00 in0.0 mm 0.00 in0.0 mm
04:24 AM 46.4°F8.0°C 42.4°F5.8°C 86% 2.0 mph SW3.2 kmh SW 6.0 mph9.7 kmh 30.33 in1027.1 mb 0.00 in0.0 mm 0.00 in0.0 mm 0.00 in0.0 mm
05:24 AM 46.2°F7.9°C 42.3°F5.7°C 86% 1.0 mph WSW1.6 kmh WSW 4.0 mph6.4 kmh 30.32 in1026.8 mb 0.00 in0.0 mm 0.00 in0.0 mm 0.00 in0.0 mm
06:24 AM 46.4°F8.0°C 42.4°F5.8°C 86% 2.0 mph SW3.2 kmh SW 7.0 mph11.3 kmh 30.30 in1026.1 mb 0.00 in0.0 mm 0.00 in0.0 mm 0.00 in0.0 mm
07:24 AM 46.2°F7.9°C 42.8°F6.0°C 88% 2.0 mph WSW3.2 kmh WSW 8.0 mph12.9 kmh 30.28 in1025.4 mb 0.00 in0.0 mm 0.00 in0.0 mm 0.00 in0.0 mm
08:24 AM 45.7°F7.6°C 42.8°F6.0°C 90% 2.0 mph WSW3.2 kmh WSW 9.0 mph14.5 kmh 30.27 in1025.1 mb 0.00 in0.0 mm 0.00 in0.0 mm 0.00 in0.0 mm
09:24 AM 46.4°F8.0°C 44.2°F6.8°C 92% 4.0 mph WSW6.4 kmh WSW 10.0 mph16.1 kmh 30.26 in1024.7 mb 0.00 in0.0 mm 0.00 in0.0 mm 0.00 in0.0 mm
10:24 AM 47.7°F8.7°C 44.2°F6.8°C 88% 3.0 mph WSW4.8 kmh WSW 8.0 mph12.9 kmh 30.25 in1024.4 mb 0.00 in0.0 mm 0.00 in0.0 mm 0.00 in0.0 mm
11:24 AM 48.7°F9.3°C 44.1°F6.7°C 84% 3.0 mph WSW4.8 kmh WSW 10.0 mph16.1 kmh 30.22 in1023.4 mb 0.00 in0.0 mm 0.00 in0.0 mm 0.00 in0.0 mm
12:24 PM 49.1°F9.5°C 43.5°F6.4°C 81% 4.0 mph WSW6.4 kmh WSW 10.0 mph16.1 kmh 30.19 in1022.4 mb 0.00 in0.0 mm 0.00 in0.0 mm 0.00 in0.0 mm
01:24 PM 49.6°F9.8°C 43.7°F6.5°C 80% 4.0 mph WSW6.4 kmh WSW 11.0 mph17.7 kmh 30.15 in1021.0 mb 0.00 in0.0 mm 0.00 in0.0 mm 0.00 in0.0 mm
02:24 PM 50.0°F10.0°C 44.1°F6.7°C 80% 4.0 mph WSW6.4 kmh WSW 11.0 mph17.7 kmh 30.12 in1020.0 mb 0.00 in0.0 mm 0.00 in0.0 mm 0.00 in0.0 mm
03:24 PM 49.1°F9.5°C 43.9°F6.6°C 82% 2.0 mph WSW3.2 kmh WSW 7.0 mph11.3 kmh 30.10 in1019.3 mb 0.00 in0.0 mm 0.00 in0.0 mm 0.00 in0.0 mm
04:24 PM 49.1°F9.5°C 43.2°F6.2°C 80% 4.0 mph WSW6.4 kmh WSW 11.0 mph17.7 kmh 30.08 in1018.6 mb 0.00 in0.0 mm 0.00 in0.0 mm 0.00 in0.0 mm
05:24 PM 48.4°F9.1°C 43.0°F6.1°C 82% 1.0 mph WSW1.6 kmh WSW 5.0 mph8.0 kmh 30.04 in1017.3 mb 0.00 in0.0 mm 0.00 in0.0 mm 0.00 in0.0 mm
06:24 PM 47.8°F8.8°C 44.4°F6.9°C 88% 3.0 mph WSW4.8 kmh WSW 8.0 mph12.9 kmh 30.01 in1016.3 mb 0.01 in0.3 mm 0.00 in0.0 mm 0.01 in0.3 mm
07:24 PM 48.2°F9.0°C 45.3°F7.4°C 90% 2.0 mph WSW3.2 kmh WSW 4.0 mph6.4 kmh 29.99 in1015.6 mb 0.00 in0.0 mm 0.00 in0.0 mm 0.01 in0.3 mm
08:24 PM 48.7°F9.3°C 45.3°F7.4°C 88% 3.0 mph WSW4.8 kmh WSW 7.0 mph11.3 kmh 29.96 in1014.6 mb 0.00 in0.0 mm 0.00 in0.0 mm 0.01 in0.3 mm
09:24 PM 49.3°F9.6°C 45.7°F7.6°C 87% 4.0 mph WSW6.4 kmh WSW 9.0 mph14.5 kmh 29.93 in1013.5 mb 0.00 in0.0 mm 0.00 in0.0 mm 0.01 in0.3 mm
10:24 PM 49.6°F9.8°C 46.2°F7.9°C 88% 2.0 mph SW3.2 kmh SW 6.0 mph9.7 kmh 29.88 in1011.9 mb 0.00 in0.0 mm 0.00 in0.0 mm 0.01 in0.3 mm
11:24 PM 50.2°F10.1°C 46.9°F8.3°C 89% 4.0 mph WSW6.4 kmh WSW 9.0 mph14.5 kmh 29.84 in1010.5 mb 0.00 in0.0 mm 0.00 in0.0 mm 0.01 in0.3 mm